sensor_id;sensor_type;location;lat;lon;timestamp;temperature;humidity
3075;DHT22;1548;51.716;8.748;2022-10-31T00:02:02;14.10;79.50
3075;DHT22;1548;51.716;8.748;2022-10-31T00:04:28;14.10;79.40
3075;DHT22;1548;51.716;8.748;2022-10-31T00:06:54;14.10;79.60
3075;DHT22;1548;51.716;8.748;2022-10-31T00:09:19;14.00;79.50
3075;DHT22;1548;51.716;8.748;2022-10-31T00:11:45;14.00;79.60
3075;DHT22;1548;51.716;8.748;2022-10-31T00:14:10;13.90;79.60
3075;DHT22;1548;51.716;8.748;2022-10-31T00:16:36;13.90;79.90
3075;DHT22;1548;51.716;8.748;2022-10-31T00:19:06;13.90;79.90
3075;DHT22;1548;51.716;8.748;2022-10-31T00:21:33;13.80;79.90
3075;DHT22;1548;51.716;8.748;2022-10-31T00:23:59;13.80;80.20
3075;DHT22;1548;51.716;8.748;2022-10-31T00:26:30;13.80;80.20
3075;DHT22;1548;51.716;8.748;2022-10-31T00:28:57;13.90;80.20
3075;DHT22;1548;51.716;8.748;2022-10-31T00:31:22;13.90;80.20
3075;DHT22;1548;51.716;8.748;2022-10-31T00:33:48;13.90;80.00
3075;DHT22;1548;51.716;8.748;2022-10-31T00:36:16;14.00;80.00
3075;DHT22;1548;51.716;8.748;2022-10-31T00:38:43;14.00;80.00
3075;DHT22;1548;51.716;8.748;2022-10-31T00:41:09;14.00;80.00
3075;DHT22;1548;51.716;8.748;2022-10-31T00:43:35;14.10;80.10
3075;DHT22;1548;51.716;8.748;2022-10-31T00:46:01;14.20;80.10
3075;DHT22;1548;51.716;8.748;2022-10-31T00:48:26;14.20;80.00
3075;DHT22;1548;51.716;8.748;2022-10-31T00:50:52;14.40;80.00
3075;DHT22;1548;51.716;8.748;2022-10-31T00:53:19;14.50;79.90
3075;DHT22;1548;51.716;8.748;2022-10-31T00:55:45;14.60;79.70
3075;DHT22;1548;51.716;8.748;2022-10-31T00:58:10;14.60;79.60
3075;DHT22;1548;51.716;8.748;2022-10-31T01:00:36;14.70;79.70
3075;DHT22;1548;51.716;8.748;2022-10-31T01:03:02;14.60;79.50
3075;DHT22;1548;51.716;8.748;2022-10-31T01:05:27;14.70;79.40
3075;DHT22;1548;51.716;8.748;2022-10-31T01:07:53;14.80;79.40
3075;DHT22;1548;51.716;8.748;2022-10-31T01:10:18;15.00;79.30
3075;DHT22;1548;51.716;8.748;2022-10-31T01:12:46;15.00;79.10
3075;DHT22;1548;51.716;8.748;2022-10-31T01:15:16;15.00;79.10
3075;DHT22;1548;51.716;8.748;2022-10-31T01:17:42;15.00;79.00
3075;DHT22;1548;51.716;8.748;2022-10-31T01:20:09;15.00;79.00
3075;DHT22;1548;51.716;8.748;2022-10-31T01:22:35;15.10;79.00
3075;DHT22;1548;51.716;8.748;2022-10-31T01:25:01;15.10;78.90
3075;DHT22;1548;51.716;8.748;2022-10-31T01:27:28;15.10;78.90
3075;DHT22;1548;51.716;8.748;2022-10-31T01:29:53;15.10;79.00
3075;DHT22;1548;51.716;8.748;2022-10-31T01:32:19;15.20;78.90
3075;DHT22;1548;51.716;8.748;2022-10-31T01:34:45;15.30;79.00
3075;DHT22;1548;51.716;8.748;2022-10-31T01:37:10;15.40;78.70
3075;DHT22;1548;51.716;8.748;2022-10-31T01:39:36;15.40;78.60
3075;DHT22;1548;51.716;8.748;2022-10-31T01:42:02;15.30;78.70
3075;DHT22;1548;51.716;8.748;2022-10-31T01:47:13;15.20;78.70
3075;DHT22;1548;51.716;8.748;2022-10-31T01:49:45;15.20;78.80
3075;DHT22;1548;51.716;8.748;2022-10-31T01:54:56;15.30;78.90
3075;DHT22;1548;51.716;8.748;2022-10-31T01:57:24;15.20;78.90
3075;DHT22;1548;51.716;8.748;2022-10-31T01:59:54;15.20;78.90
3075;DHT22;1548;51.716;8.748;2022-10-31T02:02:21;15.20;78.90
3075;DHT22;1548;51.716;8.748;2022-10-31T02:04:47;15.20;78.90
3075;DHT22;1548;51.716;8.748;2022-10-31T02:07:26;15.10;78.90
3075;DHT22;1548;51.716;8.748;2022-10-31T02:09:53;15.00;79.10
3075;DHT22;1548;51.716;8.748;2022-10-31T02:12:20;14.90;79.30
3075;DHT22;1548;51.716;8.748;2022-10-31T02:14:46;14.80;79.30
3075;DHT22;1548;51.716;8.748;2022-10-31T02:17:14;14.70;79.40
3075;DHT22;1548;51.716;8.748;2022-10-31T02:25:36;14.60;79.70
3075;DHT22;1548;51.716;8.748;2022-10-31T02:28:34;14.50;79.70
3075;DHT22;1548;51.716;8.748;2022-10-31T02:36:49;14.30;80.20
3075;DHT22;1548;51.716;8.748;2022-10-31T02:39:18;14.20;80.20
3075;DHT22;1548;51.716;8.748;2022-10-31T02:42:13;14.20;80.20
3075;DHT22;1548;51.716;8.748;2022-10-31T02:44:50;14.20;80.30
3075;DHT22;1548;51.716;8.748;2022-10-31T02:47:19;14.30;80.40
3075;DHT22;1548;51.716;8.748;2022-10-31T02:50:01;14.30;80.30
3075;DHT22;1548;51.716;8.748;2022-10-31T02:52:32;14.30;80.40
3075;DHT22;1548;51.716;8.748;2022-10-31T02:54:58;14.40;80.50
3075;DHT22;1548;51.716;8.748;2022-10-31T02:57:32;14.30;80.40
3075;DHT22;1548;51.716;8.748;2022-10-31T03:00:06;14.30;80.40
3075;DHT22;1548;51.716;8.748;2022-10-31T03:03:02;14.30;80.40
3075;DHT22;1548;51.716;8.748;2022-10-31T03:05:55;14.50;80.50
3075;DHT22;1548;51.716;8.748;2022-10-31T03:11:03;14.50;80.30
3075;DHT22;1548;51.716;8.748;2022-10-31T03:19:10;14.50;80.30
3075;DHT22;1548;51.716;8.748;2022-10-31T03:24:23;14.50;80.40
3075;DHT22;1548;51.716;8.748;2022-10-31T03:26:52;14.50;80.30
3075;DHT22;1548;51.716;8.748;2022-10-31T03:29:21;14.50;80.50
3075;DHT22;1548;51.716;8.748;2022-10-31T03:32:04;14.50;80.40
3075;DHT22;1548;51.716;8.748;2022-10-31T03:34:32;14.40;80.30
3075;DHT22;1548;51.716;8.748;2022-10-31T03:37:01;14.40;80.50
3075;DHT22;1548;51.716;8.748;2022-10-31T03:39:28;14.30;80.30
3075;DHT22;1548;51.716;8.748;2022-10-31T03:42:11;14.30;80.40
3075;DHT22;1548;51.716;8.748;2022-10-31T03:44:38;14.30;80.50
3075;DHT22;1548;51.716;8.748;2022-10-31T03:47:06;14.10;80.40
3075;DHT22;1548;51.716;8.748;2022-10-31T03:49:33;14.00;80.60
3075;DHT22;1548;51.716;8.748;2022-10-31T03:52:28;13.90;80.70
3075;DHT22;1548;51.716;8.748;2022-10-31T03:55:12;13.90;80.80
3075;DHT22;1548;51.716;8.748;2022-10-31T03:57:51;13.80;80.80
3075;DHT22;1548;51.716;8.748;2022-10-31T04:00:20;13.70;81.00
3075;DHT22;1548;51.716;8.748;2022-10-31T04:02:58;13.60;81.10
3075;DHT22;1548;51.716;8.748;2022-10-31T04:05:25;13.60;81.30
3075;DHT22;1548;51.716;8.748;2022-10-31T04:07:54;13.50;81.20
3075;DHT22;1548;51.716;8.748;2022-10-31T04:10:22;13.50;81.30
3075;DHT22;1548;51.716;8.748;2022-10-31T04:12:53;13.50;81.30
3075;DHT22;1548;51.716;8.748;2022-10-31T04:15:21;13.40;81.40
3075;DHT22;1548;51.716;8.748;2022-10-31T04:17:49;13.30;81.50
3075;DHT22;1548;51.716;8.748;2022-10-31T04:20:16;13.30;81.50
3075;DHT22;1548;51.716;8.748;2022-10-31T04:22:42;13.30;81.60
3075;DHT22;1548;51.716;8.748;2022-10-31T04:25:08;13.30;81.60
3075;DHT22;1548;51.716;8.748;2022-10-31T04:27:34;13.20;81.60
3075;DHT22;1548;51.716;8.748;2022-10-31T04:29:59;13.20;81.70
3075;DHT22;1548;51.716;8.748;2022-10-31T04:32:26;13.10;81.70
3075;DHT22;1548;51.716;8.748;2022-10-31T04:34:52;13.00;81.50
3075;DHT22;1548;51.716;8.748;2022-10-31T04:37:17;13.00;81.70
3075;DHT22;1548;51.716;8.748;2022-10-31T04:39:43;12.90;81.80
3075;DHT22;1548;51.716;8.748;2022-10-31T04:42:08;13.00;81.70
3075;DHT22;1548;51.716;8.748;2022-10-31T04:44:34;13.00;81.80
3075;DHT22;1548;51.716;8.748;2022-10-31T04:47:01;13.10;81.80
3075;DHT22;1548;51.716;8.748;2022-10-31T04:49:26;13.20;81.70
3075;DHT22;1548;51.716;8.748;2022-10-31T04:51:52;13.10;81.80
3075;DHT22;1548;51.716;8.748;2022-10-31T04:54:18;13.10;81.70
3075;DHT22;1548;51.716;8.748;2022-10-31T04:56:43;13.10;81.60
3075;DHT22;1548;51.716;8.748;2022-10-31T04:59:10;13.00;81.80
3075;DHT22;1548;51.716;8.748;2022-10-31T05:01:36;12.90;81.80
3075;DHT22;1548;51.716;8.748;2022-10-31T05:04:01;12.80;81.80
3075;DHT22;1548;51.716;8.748;2022-10-31T05:06:27;12.80;81.80
3075;DHT22;1548;51.716;8.748;2022-10-31T05:08:54;12.70;81.80
3075;DHT22;1548;51.716;8.748;2022-10-31T05:11:19;12.80;81.80
3075;DHT22;1548;51.716;8.748;2022-10-31T05:13:45;12.70;82.00
3075;DHT22;1548;51.716;8.748;2022-10-31T05:16:11;12.70;82.00
3075;DHT22;1548;51.716;8.748;2022-10-31T05:18:37;12.70;82.00
3075;DHT22;1548;51.716;8.748;2022-10-31T05:21:03;12.70;82.00
3075;DHT22;1548;51.716;8.748;2022-10-31T05:23:28;12.80;82.10
3075;DHT22;1548;51.716;8.748;2022-10-31T05:25:54;12.70;82.00
3075;DHT22;1548;51.716;8.748;2022-10-31T05:28:20;12.70;82.00
3075;DHT22;1548;51.716;8.748;2022-10-31T05:30:45;12.70;82.10
3075;DHT22;1548;51.716;8.748;2022-10-31T05:33:11;12.70;82.10
3075;DHT22;1548;51.716;8.748;2022-10-31T05:35:37;12.60;82.10
3075;DHT22;1548;51.716;8.748;2022-10-31T05:38:02;12.60;82.10
3075;DHT22;1548;51.716;8.748;2022-10-31T05:40:28;12.60;82.10
3075;DHT22;1548;51.716;8.748;2022-10-31T05:42:56;12.60;82.10
3075;DHT22;1548;51.716;8.748;2022-10-31T05:45:22;12.60;82.10
3075;DHT22;1548;51.716;8.748;2022-10-31T05:47:55;12.50;82.10
3075;DHT22;1548;51.716;8.748;2022-10-31T05:50:22;12.50;82.10
3075;DHT22;1548;51.716;8.748;2022-10-31T05:52:55;12.50;82.20
3075;DHT22;1548;51.716;8.748;2022-10-31T05:55:20;12.40;82.00
3075;DHT22;1548;51.716;8.748;2022-10-31T05:57:46;12.30;82.10
3075;DHT22;1548;51.716;8.748;2022-10-31T06:00:12;12.40;82.40
3075;DHT22;1548;51.716;8.748;2022-10-31T06:02:37;12.30;82.30
3075;DHT22;1548;51.716;8.748;2022-10-31T06:05:04;12.20;82.30
3075;DHT22;1548;51.716;8.748;2022-10-31T06:07:34;12.20;82.30
3075;DHT22;1548;51.716;8.748;2022-10-31T06:10:00;12.20;82.20
3075;DHT22;1548;51.716;8.748;2022-10-31T06:12:26;12.40;82.30
3075;DHT22;1548;51.716;8.748;2022-10-31T06:14:53;12.40;82.30
3075;DHT22;1548;51.716;8.748;2022-10-31T06:17:18;12.40;82.40
3075;DHT22;1548;51.716;8.748;2022-10-31T06:19:44;12.50;82.40
3075;DHT22;1548;51.716;8.748;2022-10-31T06:22:09;12.50;82.30
3075;DHT22;1548;51.716;8.748;2022-10-31T06:24:37;12.50;82.30
3075;DHT22;1548;51.716;8.748;2022-10-31T06:27:03;12.50;82.30
3075;DHT22;1548;51.716;8.748;2022-10-31T06:29:29;12.50;82.40
3075;DHT22;1548;51.716;8.748;2022-10-31T06:31:54;12.50;82.30
3075;DHT22;1548;51.716;8.748;2022-10-31T06:34:22;12.50;82.30
3075;DHT22;1548;51.716;8.748;2022-10-31T06:36:48;12.40;82.40
3075;DHT22;1548;51.716;8.748;2022-10-31T06:39:15;12.40;82.30
3075;DHT22;1548;51.716;8.748;2022-10-31T06:41:42;12.50;82.50
3075;DHT22;1548;51.716;8.748;2022-10-31T06:44:08;12.40;82.30
3075;DHT22;1548;51.716;8.748;2022-10-31T06:46:33;12.40;82.30
3075;DHT22;1548;51.716;8.748;2022-10-31T06:48:59;12.40;82.40
3075;DHT22;1548;51.716;8.748;2022-10-31T06:51:25;12.40;82.40
3075;DHT22;1548;51.716;8.748;2022-10-31T06:53:50;12.50;82.30
3075;DHT22;1548;51.716;8.748;2022-10-31T06:56:16;12.60;82.30
3075;DHT22;1548;51.716;8.748;2022-10-31T06:58:42;12.70;82.60
3075;DHT22;1548;51.716;8.748;2022-10-31T07:01:08;12.70;82.20
3075;DHT22;1548;51.716;8.748;2022-10-31T07:03:34;12.80;82.40
3075;DHT22;1548;51.716;8.748;2022-10-31T07:06:00;12.80;82.40
3075;DHT22;1548;51.716;8.748;2022-10-31T07:08:25;12.80;82.40
3075;DHT22;1548;51.716;8.748;2022-10-31T07:10:53;12.80;82.30
3075;DHT22;1548;51.716;8.748;2022-10-31T07:13:19;12.70;82.20
3075;DHT22;1548;51.716;8.748;2022-10-31T07:15:50;12.80;82.40
3075;DHT22;1548;51.716;8.748;2022-10-31T07:18:16;12.90;82.40
3075;DHT22;1548;51.716;8.748;2022-10-31T07:20:42;12.80;82.40
3075;DHT22;1548;51.716;8.748;2022-10-31T07:23:11;12.80;82.20
3075;DHT22;1548;51.716;8.748;2022-10-31T07:25:41;12.70;82.30
3075;DHT22;1548;51.716;8.748;2022-10-31T07:28:07;12.70;82.20
3075;DHT22;1548;51.716;8.748;2022-10-31T07:30:32;12.60;82.20
3075;DHT22;1548;51.716;8.748;2022-10-31T07:33:11;12.60;82.30
3075;DHT22;1548;51.716;8.748;2022-10-31T07:35:36;12.70;82.30
3075;DHT22;1548;51.716;8.748;2022-10-31T07:38:10;12.70;82.30
3075;DHT22;1548;51.716;8.748;2022-10-31T07:40:36;12.70;82.30
3075;DHT22;1548;51.716;8.748;2022-10-31T07:43:01;12.80;82.40
3075;DHT22;1548;51.716;8.748;2022-10-31T07:45:27;12.80;82.20
3075;DHT22;1548;51.716;8.748;2022-10-31T07:47:53;12.90;82.40
3075;DHT22;1548;51.716;8.748;2022-10-31T07:50:21;13.00;82.30
3075;DHT22;1548;51.716;8.748;2022-10-31T07:52:47;13.00;82.20
3075;DHT22;1548;51.716;8.748;2022-10-31T07:55:14;13.00;82.20
3075;DHT22;1548;51.716;8.748;2022-10-31T07:57:40;13.10;82.30
3075;DHT22;1548;51.716;8.748;2022-10-31T08:00:08;13.10;82.20
3075;DHT22;1548;51.716;8.748;2022-10-31T08:02:34;13.10;82.10
3075;DHT22;1548;51.716;8.748;2022-10-31T08:05:00;13.20;82.20
3075;DHT22;1548;51.716;8.748;2022-10-31T08:07:27;13.30;82.30
3075;DHT22;1548;51.716;8.748;2022-10-31T08:09:54;13.30;82.20
3075;DHT22;1548;51.716;8.748;2022-10-31T08:12:19;13.40;82.20
3075;DHT22;1548;51.716;8.748;2022-10-31T08:14:45;13.40;82.00
3075;DHT22;1548;51.716;8.748;2022-10-31T08:17:11;13.60;82.00
3075;DHT22;1548;51.716;8.748;2022-10-31T08:19:36;13.60;82.00
3075;DHT22;1548;51.716;8.748;2022-10-31T08:22:02;13.80;82.00
3075;DHT22;1548;51.716;8.748;2022-10-31T08:24:27;13.90;82.00
3075;DHT22;1548;51.716;8.748;2022-10-31T08:26:53;14.00;82.00
3075;DHT22;1548;51.716;8.748;2022-10-31T08:29:19;14.10;81.90
3075;DHT22;1548;51.716;8.748;2022-10-31T08:31:44;14.20;81.80
3075;DHT22;1548;51.716;8.748;2022-10-31T08:34:10;14.30;81.80
3075;DHT22;1548;51.716;8.748;2022-10-31T08:36:35;14.30;81.70
3075;DHT22;1548;51.716;8.748;2022-10-31T08:39:02;14.50;81.80
3075;DHT22;1548;51.716;8.748;2022-10-31T08:41:28;14.50;81.80
3075;DHT22;1548;51.716;8.748;2022-10-31T08:43:53;14.60;81.60
3075;DHT22;1548;51.716;8.748;2022-10-31T08:46:19;14.70;81.60
3075;DHT22;1548;51.716;8.748;2022-10-31T08:48:47;14.80;81.60
3075;DHT22;1548;51.716;8.748;2022-10-31T08:51:13;14.90;81.50
3075;DHT22;1548;51.716;8.748;2022-10-31T08:53:38;15.00;81.50
3075;DHT22;1548;51.716;8.748;2022-10-31T08:56:05;15.20;81.50
3075;DHT22;1548;51.716;8.748;2022-10-31T08:58:31;15.40;81.30
3075;DHT22;1548;51.716;8.748;2022-10-31T09:00:59;15.50;81.20
3075;DHT22;1548;51.716;8.748;2022-10-31T09:03:27;15.60;81.10
3075;DHT22;1548;51.716;8.748;2022-10-31T09:06:00;15.60;81.00
3075;DHT22;1548;51.716;8.748;2022-10-31T09:08:28;15.60;80.90
3075;DHT22;1548;51.716;8.748;2022-10-31T09:10:56;15.60;81.00
3075;DHT22;1548;51.716;8.748;2022-10-31T09:13:24;15.70;81.00
3075;DHT22;1548;51.716;8.748;2022-10-31T09:15:50;15.80;81.00
3075;DHT22;1548;51.716;8.748;2022-10-31T09:18:18;15.90;81.00
3075;DHT22;1548;51.716;8.748;2022-10-31T09:20:45;15.90;80.80
3075;DHT22;1548;51.716;8.748;2022-10-31T09:23:12;16.00;80.90
3075;DHT22;1548;51.716;8.748;2022-10-31T09:25:39;16.10;80.80
3075;DHT22;1548;51.716;8.748;2022-10-31T09:28:07;16.20;80.80
3075;DHT22;1548;51.716;8.748;2022-10-31T09:30:34;16.40;80.80
3075;DHT22;1548;51.716;8.748;2022-10-31T09:33:03;16.50;80.40
3075;DHT22;1548;51.716;8.748;2022-10-31T09:35:29;16.60;80.20
3075;DHT22;1548;51.716;8.748;2022-10-31T09:38:01;16.70;79.90
3075;DHT22;1548;51.716;8.748;2022-10-31T09:51:43;17.00;79.70
3075;DHT22;1548;51.716;8.748;2022-10-31T09:54:20;16.90;79.50
3075;DHT22;1548;51.716;8.748;2022-10-31T09:56:47;17.00;79.50
3075;DHT22;1548;51.716;8.748;2022-10-31T09:59:34;17.10;79.40
3075;DHT22;1548;51.716;8.748;2022-10-31T10:02:04;17.30;79.30
3075;DHT22;1548;51.716;8.748;2022-10-31T10:04:57;17.30;79.00
3075;DHT22;1548;51.716;8.748;2022-10-31T10:10:05;17.50;78.60
3075;DHT22;1548;51.716;8.748;2022-10-31T10:21:16;17.60;78.00
3075;DHT22;1548;51.716;8.748;2022-10-31T10:24:08;17.60;77.80
3075;DHT22;1548;51.716;8.748;2022-10-31T10:26:40;17.50;78.20
3075;DHT22;1548;51.716;8.748;2022-10-31T10:29:38;17.60;78.20
3075;DHT22;1548;51.716;8.748;2022-10-31T10:35:22;17.60;78.00
3075;DHT22;1548;51.716;8.748;2022-10-31T10:37:46;17.60;77.90
3075;DHT22;1548;51.716;8.748;2022-10-31T10:40:17;17.70;77.70
3075;DHT22;1548;51.716;8.748;2022-10-31T10:45:53;17.70;77.60
3075;DHT22;1548;51.716;8.748;2022-10-31T10:48:45;17.80;77.70
3075;DHT22;1548;51.716;8.748;2022-10-31T10:51:46;17.90;77.50
3075;DHT22;1548;51.716;8.748;2022-10-31T10:54:49;17.90;77.30
3075;DHT22;1548;51.716;8.748;2022-10-31T11:00:15;17.80;77.40
3075;DHT22;1548;51.716;8.748;2022-10-31T11:02:42;17.90;77.40
3075;DHT22;1548;51.716;8.748;2022-10-31T11:05:17;18.20;77.10
3075;DHT22;1548;51.716;8.748;2022-10-31T11:07:43;18.20;76.90
3075;DHT22;1548;51.716;8.748;2022-10-31T11:10:13;18.10;76.90
3075;DHT22;1548;51.716;8.748;2022-10-31T11:12:40;18.20;76.90
3075;DHT22;1548;51.716;8.748;2022-10-31T11:15:19;18.20;76.70
3075;DHT22;1548;51.716;8.748;2022-10-31T11:17:49;18.00;77.10
3075;DHT22;1548;51.716;8.748;2022-10-31T11:22:43;18.10;77.10
3075;DHT22;1548;51.716;8.748;2022-10-31T11:25:22;18.10;76.90
3075;DHT22;1548;51.716;8.748;2022-10-31T11:28:02;18.20;76.70
3075;DHT22;1548;51.716;8.748;2022-10-31T11:30:29;18.20;76.60
3075;DHT22;1548;51.716;8.748;2022-10-31T11:32:56;18.10;76.90
3075;DHT22;1548;51.716;8.748;2022-10-31T11:35:22;18.10;76.90
3075;DHT22;1548;51.716;8.748;2022-10-31T11:37:51;18.10;76.90
3075;DHT22;1548;51.716;8.748;2022-10-31T11:40:22;18.00;76.90
3075;DHT22;1548;51.716;8.748;2022-10-31T11:42:50;18.10;76.70
3075;DHT22;1548;51.716;8.748;2022-10-31T11:47:50;18.30;76.60
3075;DHT22;1548;51.716;8.748;2022-10-31T11:50:22;18.30;76.50
3075;DHT22;1548;51.716;8.748;2022-10-31T11:52:50;18.30;76.40
3075;DHT22;1548;51.716;8.748;2022-10-31T11:55:38;18.30;76.50
3075;DHT22;1548;51.716;8.748;2022-10-31T11:58:04;18.40;76.50
3075;DHT22;1548;51.716;8.748;2022-10-31T12:00:38;18.40;76.30
3075;DHT22;1548;51.716;8.748;2022-10-31T12:05:51;18.80;75.80
3075;DHT22;1548;51.716;8.748;2022-10-31T12:08:17;19.00;75.50
3075;DHT22;1548;51.716;8.748;2022-10-31T12:11:05;19.20;75.20
3075;DHT22;1548;51.716;8.748;2022-10-31T12:14:04;19.20;74.90
3075;DHT22;1548;51.716;8.748;2022-10-31T12:19:24;19.30;74.80
3075;DHT22;1548;51.716;8.748;2022-10-31T12:22:13;19.20;75.00
3075;DHT22;1548;51.716;8.748;2022-10-31T12:25:09;19.10;75.00
3075;DHT22;1548;51.716;8.748;2022-10-31T12:30:53;18.90;75.40
3075;DHT22;1548;51.716;8.748;2022-10-31T12:41:47;18.80;75.60
3075;DHT22;1548;51.716;8.748;2022-10-31T12:58:21;18.60;76.20
3075;DHT22;1548;51.716;8.748;2022-10-31T13:00:51;18.80;76.10
3075;DHT22;1548;51.716;8.748;2022-10-31T13:03:24;18.80;75.90
3075;DHT22;1548;51.716;8.748;2022-10-31T13:05:54;18.90;75.90
3075;DHT22;1548;51.716;8.748;2022-10-31T13:08:28;19.00;75.90
3075;DHT22;1548;51.716;8.748;2022-10-31T13:11:19;18.80;75.80
3075;DHT22;1548;51.716;8.748;2022-10-31T13:16:30;18.60;76.30
3075;DHT22;1548;51.716;8.748;2022-10-31T13:19:08;18.70;76.10
3075;DHT22;1548;51.716;8.748;2022-10-31T13:21:53;18.80;76.00
3075;DHT22;1548;51.716;8.748;2022-10-31T13:24:47;18.90;75.90
3075;DHT22;1548;51.716;8.748;2022-10-31T13:27:29;18.90;75.80
3075;DHT22;1548;51.716;8.748;2022-10-31T13:44:14;18.80;76.00
3075;DHT22;1548;51.716;8.748;2022-10-31T13:48:57;18.70;76.30
3075;DHT22;1548;51.716;8.748;2022-10-31T13:51:28;18.80;76.20
3075;DHT22;1548;51.716;8.748;2022-10-31T13:56:32;18.90;76.10
3075;DHT22;1548;51.716;8.748;2022-10-31T13:59:03;19.00;76.10
3075;DHT22;1548;51.716;8.748;2022-10-31T14:01:31;19.00;76.00
3075;DHT22;1548;51.716;8.748;2022-10-31T14:04:06;19.10;75.90
3075;DHT22;1548;51.716;8.748;2022-10-31T14:09:31;19.00;75.70
3075;DHT22;1548;51.716;8.748;2022-10-31T14:12:44;19.00;75.80
3075;DHT22;1548;51.716;8.748;2022-10-31T14:14:48;19.00;76.00
3075;DHT22;1548;51.716;8.748;2022-10-31T14:17:21;19.00;75.90
3075;DHT22;1548;51.716;8.748;2022-10-31T14:20:22;18.90;76.00
3075;DHT22;1548;51.716;8.748;2022-10-31T14:22:45;19.00;76.00
3075;DHT22;1548;51.716;8.748;2022-10-31T14:27:58;19.00;76.20
3075;DHT22;1548;51.716;8.748;2022-10-31T14:30:26;19.00;76.10
3075;DHT22;1548;51.716;8.748;2022-10-31T14:32:57;18.90;76.20
3075;DHT22;1548;51.716;8.748;2022-10-31T14:35:37;18.80;76.20
3075;DHT22;1548;51.716;8.748;2022-10-31T14:38:24;18.80;76.30
3075;DHT22;1548;51.716;8.748;2022-10-31T14:44:16;18.70;76.60
3075;DHT22;1548;51.716;8.748;2022-10-31T14:49:48;18.70;76.50
3075;DHT22;1548;51.716;8.748;2022-10-31T14:52:17;18.70;76.60
3075;DHT22;1548;51.716;8.748;2022-10-31T14:54:51;18.70;76.70
3075;DHT22;1548;51.716;8.748;2022-10-31T14:57:27;18.70;76.70
3075;DHT22;1548;51.716;8.748;2022-10-31T14:59:58;18.70;76.80
3075;DHT22;1548;51.716;8.748;2022-10-31T15:02:41;18.60;76.80
3075;DHT22;1548;51.716;8.748;2022-10-31T15:05:11;18.50;76.90
3075;DHT22;1548;51.716;8.748;2022-10-31T15:07:55;18.50;77.00
3075;DHT22;1548;51.716;8.748;2022-10-31T15:10:25;18.40;77.00
3075;DHT22;1548;51.716;8.748;2022-10-31T15:12:52;18.40;77.10
3075;DHT22;1548;51.716;8.748;2022-10-31T15:15:25;18.40;77.20
3075;DHT22;1548;51.716;8.748;2022-10-31T15:17:56;18.30;77.20
3075;DHT22;1548;51.716;8.748;2022-10-31T15:20:26;18.30;77.30
3075;DHT22;1548;51.716;8.748;2022-10-31T15:22:53;18.30;77.40
3075;DHT22;1548;51.716;8.748;2022-10-31T15:25:22;18.20;77.50
3075;DHT22;1548;51.716;8.748;2022-10-31T15:27:49;18.10;77.70
3075;DHT22;1548;51.716;8.748;2022-10-31T15:30:24;18.00;77.70
3075;DHT22;1548;51.716;8.748;2022-10-31T15:32:50;18.00;77.80
3075;DHT22;1548;51.716;8.748;2022-10-31T15:35:25;18.00;77.80
3075;DHT22;1548;51.716;8.748;2022-10-31T15:37:54;17.90;77.90
3075;DHT22;1548;51.716;8.748;2022-10-31T15:40:22;17.90;77.90
3075;DHT22;1548;51.716;8.748;2022-10-31T15:42:57;17.90;78.00
3075;DHT22;1548;51.716;8.748;2022-10-31T15:45:26;17.90;77.80
3075;DHT22;1548;51.716;8.748;2022-10-31T15:48:04;17.90;77.90
3075;DHT22;1548;51.716;8.748;2022-10-31T15:50:41;17.80;78.10
3075;DHT22;1548;51.716;8.748;2022-10-31T15:53:47;17.90;78.10
3075;DHT22;1548;51.716;8.748;2022-10-31T15:56:20;17.90;77.90
3075;DHT22;1548;51.716;8.748;2022-10-31T15:58:49;17.90;77.90
3075;DHT22;1548;51.716;8.748;2022-10-31T16:01:21;17.90;77.90
3075;DHT22;1548;51.716;8.748;2022-10-31T16:04:18;17.80;77.90
3075;DHT22;1548;51.716;8.748;2022-10-31T16:06:44;17.80;77.90
3075;DHT22;1548;51.716;8.748;2022-10-31T16:09:22;17.80;77.80
3075;DHT22;1548;51.716;8.748;2022-10-31T16:11:49;17.80;78.00
3075;DHT22;1548;51.716;8.748;2022-10-31T16:14:23;17.80;77.90
3075;DHT22;1548;51.716;8.748;2022-10-31T16:16:51;17.70;77.90
3075;DHT22;1548;51.716;8.748;2022-10-31T16:19:23;17.60;78.00
3075;DHT22;1548;51.716;8.748;2022-10-31T16:22:01;17.50;78.30
3075;DHT22;1548;51.716;8.748;2022-10-31T16:24:32;17.50;78.30
3075;DHT22;1548;51.716;8.748;2022-10-31T16:27:06;17.60;78.30
3075;DHT22;1548;51.716;8.748;2022-10-31T16:29:44;17.50;78.30
3075;DHT22;1548;51.716;8.748;2022-10-31T16:32:28;17.50;78.30
3075;DHT22;1548;51.716;8.748;2022-10-31T16:37:41;17.40;78.30
3075;DHT22;1548;51.716;8.748;2022-10-31T16:40:10;17.40;78.60
3075;DHT22;1548;51.716;8.748;2022-10-31T16:42:36;17.40;78.50
3075;DHT22;1548;51.716;8.748;2022-10-31T16:45:01;17.50;78.30
3075;DHT22;1548;51.716;8.748;2022-10-31T16:47:27;17.50;78.20
3075;DHT22;1548;51.716;8.748;2022-10-31T16:49:53;17.40;78.30
3075;DHT22;1548;51.716;8.748;2022-10-31T16:52:18;17.30;78.30
3075;DHT22;1548;51.716;8.748;2022-10-31T16:54:44;17.30;78.40
3075;DHT22;1548;51.716;8.748;2022-10-31T16:57:18;17.30;78.40
3075;DHT22;1548;51.716;8.748;2022-10-31T16:59:49;17.30;78.30
3075;DHT22;1548;51.716;8.748;2022-10-31T17:02:16;17.20;78.40
3075;DHT22;1548;51.716;8.748;2022-10-31T17:04:42;17.30;78.50
3075;DHT22;1548;51.716;8.748;2022-10-31T17:07:08;17.20;78.40
3075;DHT22;1548;51.716;8.748;2022-10-31T17:09:33;17.20;78.60
3075;DHT22;1548;51.716;8.748;2022-10-31T17:11:59;17.20;78.50
3075;DHT22;1548;51.716;8.748;2022-10-31T17:14:25;17.20;78.60
3075;DHT22;1548;51.716;8.748;2022-10-31T17:16:51;17.20;78.70
3075;DHT22;1548;51.716;8.748;2022-10-31T17:19:16;17.20;78.60
3075;DHT22;1548;51.716;8.748;2022-10-31T17:21:42;17.10;78.70
3075;DHT22;1548;51.716;8.748;2022-10-31T17:24:12;17.10;78.80
3075;DHT22;1548;51.716;8.748;2022-10-31T17:26:38;17.10;78.90
3075;DHT22;1548;51.716;8.748;2022-10-31T17:29:03;17.10;78.80
3075;DHT22;1548;51.716;8.748;2022-10-31T17:31:31;17.20;78.80
3075;DHT22;1548;51.716;8.748;2022-10-31T17:33:59;17.30;78.50
3075;DHT22;1548;51.716;8.748;2022-10-31T17:36:25;17.30;78.50
3075;DHT22;1548;51.716;8.748;2022-10-31T17:38:51;17.30;78.30
3075;DHT22;1548;51.716;8.748;2022-10-31T17:41:17;17.20;78.40
3075;DHT22;1548;51.716;8.748;2022-10-31T17:43:42;17.10;78.40
3075;DHT22;1548;51.716;8.748;2022-10-31T17:46:08;17.10;78.40
3075;DHT22;1548;51.716;8.748;2022-10-31T17:48:35;17.10;78.40
3075;DHT22;1548;51.716;8.748;2022-10-31T17:51:03;17.10;78.40
3075;DHT22;1548;51.716;8.748;2022-10-31T17:53:30;17.20;78.40
3075;DHT22;1548;51.716;8.748;2022-10-31T17:56:03;17.20;78.40
3075;DHT22;1548;51.716;8.748;2022-10-31T17:58:30;17.20;78.30
3075;DHT22;1548;51.716;8.748;2022-10-31T18:00:57;17.20;78.10
3075;DHT22;1548;51.716;8.748;2022-10-31T18:03:23;17.20;78.10
3075;DHT22;1548;51.716;8.748;2022-10-31T18:05:56;17.20;77.90
3075;DHT22;1548;51.716;8.748;2022-10-31T18:08:30;17.20;77.90
3075;DHT22;1548;51.716;8.748;2022-10-31T18:10:57;17.20;77.80
3075;DHT22;1548;51.716;8.748;2022-10-31T18:13:26;17.10;77.80
3075;DHT22;1548;51.716;8.748;2022-10-31T18:15:53;17.10;77.70
3075;DHT22;1548;51.716;8.748;2022-10-31T18:18:19;17.10;77.80
3075;DHT22;1548;51.716;8.748;2022-10-31T18:20:44;17.20;77.80
3075;DHT22;1548;51.716;8.748;2022-10-31T18:23:10;17.10;77.80
3075;DHT22;1548;51.716;8.748;2022-10-31T18:25:37;17.10;78.00
3075;DHT22;1548;51.716;8.748;2022-10-31T18:28:06;17.10;78.10
3075;DHT22;1548;51.716;8.748;2022-10-31T18:30:32;17.00;78.20
3075;DHT22;1548;51.716;8.748;2022-10-31T18:32:58;16.90;78.30